Time;durP1;ratioP1;P1;durP2;ratioP2;P2;SDS_P1;SDS_P2;PMS_P1;PMS_P2;Temp;Humidity;BMP_temperature;BMP_pressure;BME280_temperature;BME280_humidity;BME280_pressure;Samples;Min_cycle;Max_cycle;Signal;HPM_P1;HPM_P2
2024/04/11 00:02:24;;;;;;;8.50;1.58;;;;;;;;;;5415404;26;20018;-83
2024/04/11 00:04:50;;;;;;;7.00;1.83;;;;;;;;;;5415166;26;20004;-84
2024/04/11 00:07:16;;;;;;;6.85;2.53;;;;;;;;;;5416363;26;20003;-85
2024/04/11 00:09:42;;;;;;;8.27;2.75;;;;;;;;;;5417315;26;20532;-85
2024/04/11 00:12:08;;;;;;;9.07;2.20;;;;;;;;;;5415922;26;20003;-85
2024/04/11 00:20:42;;;;;;;6.90;1.92;;;;;;;;;;5416950;26;20350;-85
2024/04/11 00:23:08;;;;;;;8.18;1.77;;;;;;;;;;5417433;26;20000;-85
2024/04/11 00:25:34;;;;;;;8.40;1.67;;;;;;;;;;5415876;26;19995;-81
2024/04/11 00:28:00;;;;;;;8.32;1.40;;;;;;;;;;5415683;26;20076;-81
2024/04/11 00:30:26;;;;;;;10.85;1.70;;;;;;;;;;5416240;26;20008;-82
2024/04/11 00:32:52;;;;;;;9.93;2.03;;;;;;;;;;5414951;26;20014;-81
2024/04/11 00:35:18;;;;;;;14.75;1.98;;;;;;;;;;5414310;26;20011;-80
2024/04/11 00:37:46;;;;;;;12.80;2.05;;;;;;;;;;5414030;26;20070;-81
2024/04/11 00:40:12;;;;;;;7.45;1.80;;;;;;;;;;5414282;26;20450;-81
2024/04/11 00:42:38;;;;;;;8.10;2.15;;;;;;;;;;5413679;26;20664;-81
2024/04/11 00:45:06;;;;;;;7.90;2.45;;;;;;;;;;5414316;26;20009;-80
2024/04/11 00:47:33;;;;;;;9.20;1.65;;;;;;;;;;5413708;26;20000;-80
2024/04/11 00:49:59;;;;;;;9.27;1.55;;;;;;;;;;5415785;26;20007;-80
2024/04/11 00:52:26;;;;;;;8.00;1.35;;;;;;;;;;5413617;26;20100;-79
2024/04/11 00:54:52;;;;;;;7.65;1.85;;;;;;;;;;5415810;26;20291;-80
2024/04/11 00:57:18;;;;;;;7.95;1.63;;;;;;;;;;5414085;26;20003;-81
2024/04/11 00:59:45;;;;;;;7.00;1.55;;;;;;;;;;5413833;26;20011;-81
2024/04/11 01:02:11;;;;;;;5.18;1.42;;;;;;;;;;5413813;26;20038;-81
2024/04/11 01:04:38;;;;;;;8.65;1.85;;;;;;;;;;5415160;26;20003;-81
2024/04/11 01:07:11;;;;;;;8.85;1.50;;;;;;;;;;5415939;26;19999;-80
2024/04/11 01:09:44;;;;;;;7.32;1.73;;;;;;;;;;5413354;26;20041;-80
2024/04/11 01:12:14;;;;;;;10.13;1.80;;;;;;;;;;5415465;26;20355;-81
2024/04/11 01:14:41;;;;;;;;;;;;;;;;;;5413915;26;20177;-81
2024/04/11 01:17:07;;;;;;;8.27;2.17;;;;;;;;;;5413588;26;19925;-82
2024/04/11 01:19:33;;;;;;;6.85;1.55;;;;;;;;;;5413375;26;20328;-82
2024/04/11 01:22:00;;;;;;;9.73;2.05;;;;;;;;;;5415358;26;20082;-82
2024/04/11 01:24:27;;;;;;;9.45;1.88;;;;;;;;;;5415788;26;20004;-82
2024/04/11 01:26:53;;;;;;;6.90;1.55;;;;;;;;;;5416905;26;20008;-81
2024/04/11 01:29:19;;;;;;;7.07;2.15;;;;;;;;;;5419018;26;20014;-79
2024/04/11 01:31:45;;;;;;;8.82;1.50;;;;;;;;;;5416557;26;20004;-78
2024/04/11 01:34:11;;;;;;;13.40;2.58;;;;;;;;;;5416869;26;20009;-78
2024/04/11 01:36:38;;;;;;;8.63;1.73;;;;;;;;;;5416562;26;20003;-79
2024/04/11 01:39:09;;;;;;;6.68;1.50;;;;;;;;;;5418939;26;20027;-79
2024/04/11 01:41:35;;;;;;;10.80;1.73;;;;;;;;;;5416094;26;20010;-80
2024/04/11 01:44:02;;;;;;;9.77;2.15;;;;;;;;;;5417135;26;20011;-79
2024/04/11 01:46:28;;;;;;;9.10;1.63;;;;;;;;;;5418320;26;20073;-80
2024/04/11 01:48:54;;;;;;;9.07;1.70;;;;;;;;;;5417059;26;20042;-80
2024/04/11 01:51:20;;;;;;;11.10;2.35;;;;;;;;;;5417012;26;20012;-80
2024/04/11 01:53:46;;;;;;;9.30;1.90;;;;;;;;;;5416478;26;20010;-80
2024/04/11 01:56:12;;;;;;;7.10;1.10;;;;;;;;;;5418723;26;20011;-80
2024/04/11 01:58:42;;;;;;;8.68;1.90;;;;;;;;;;5416693;26;20019;-80
2024/04/11 02:01:13;;;;;;;9.48;1.75;;;;;;;;;;5416948;26;20003;-81
2024/04/11 02:03:38;;;;;;;;;;;;;;;;;;5418360;26;20472;-81
2024/04/11 02:06:08;;;;;;;9.02;1.85;;;;;;;;;;5416452;26;19932;-81
2024/04/11 02:08:37;;;;;;;9.18;1.63;;;;;;;;;;5416264;26;20011;-81
2024/04/11 02:11:04;;;;;;;10.20;1.85;;;;;;;;;;5416747;26;20043;-80
2024/04/11 02:13:30;;;;;;;9.23;1.90;;;;;;;;;;5416469;26;19999;-81
2024/04/11 02:15:56;;;;;;;8.10;1.65;;;;;;;;;;5416199;26;20343;-81
2024/04/11 02:18:22;;;;;;;9.00;2.22;;;;;;;;;;5416408;26;20335;-81
2024/04/11 02:20:48;;;;;;;8.13;1.58;;;;;;;;;;5416480;26;20008;-82
2024/04/11 02:23:16;;;;;;;4.95;1.83;;;;;;;;;;5416374;26;20045;-83
2024/04/11 02:25:42;;;;;;;6.72;1.40;;;;;;;;;;5415988;26;20004;-83
2024/04/11 02:28:08;;;;;;;8.73;1.60;;;;;;;;;;5418460;26;20010;-80
2024/04/11 02:30:34;;;;;;;6.78;1.85;;;;;;;;;;5415972;26;20344;-80
2024/04/11 02:33:00;;;;;;;6.53;1.30;;;;;;;;;;5416387;26;20049;-80
2024/04/11 02:35:26;;;;;;;11.55;2.40;;;;;;;;;;5415470;26;20008;-80
2024/04/11 02:37:53;;;;;;;9.40;1.63;;;;;;;;;;5418028;26;20006;-80
2024/04/11 02:40:19;;;;;;;6.50;1.70;;;;;;;;;;5416467;26;20050;-79
2024/04/11 02:42:46;;;;;;;12.65;2.35;;;;;;;;;;5415262;26;20003;-81
2024/04/11 02:45:15;;;;;;;12.95;2.20;;;;;;;;;;5415764;26;20000;-82
2024/04/11 02:47:44;;;;;;;6.05;1.65;;;;;;;;;;5415253;26;20011;-81
2024/04/11 02:50:15;;;;;;;11.03;2.07;;;;;;;;;;5415799;26;20004;-82
2024/04/11 02:52:41;;;;;;;5.35;1.52;;;;;;;;;;5415144;26;20014;-80
2024/04/11 02:55:08;;;;;;;6.88;1.63;;;;;;;;;;5415437;26;20003;-80
2024/04/11 02:57:34;;;;;;;7.07;1.83;;;;;;;;;;5415202;26;20000;-81
2024/04/11 03:00:00;;;;;;;10.43;2.63;;;;;;;;;;5415921;26;20012;-81
2024/04/11 03:02:28;;;;;;;7.68;2.28;;;;;;;;;;5415077;26;20034;-81
2024/04/11 03:04:56;;;;;;;11.40;1.92;;;;;;;;;;5415196;26;20118;-81
2024/04/11 03:07:22;;;;;;;9.45;1.85;;;;;;;;;;5417149;26;20021;-80
2024/04/11 03:09:48;;;;;;;9.60;2.33;;;;;;;;;;5415021;26;20010;-81
2024/04/11 03:12:14;;;;;;;13.90;2.40;;;;;;;;;;5415255;26;20003;-80
2024/04/11 03:14:40;;;;;;;7.88;1.60;;;;;;;;;;5414915;26;20014;-80
2024/04/11 03:17:06;;;;;;;5.85;2.30;;;;;;;;;;5415121;26;20470;-81
2024/04/11 03:19:32;;;;;;;10.00;2.00;;;;;;;;;;5414909;26;20108;-80
2024/04/11 03:21:59;;;;;;;8.82;2.47;;;;;;;;;;5415939;26;20011;-80
2024/04/11 03:24:25;;;;;;;11.95;2.42;;;;;;;;;;5415166;26;20013;-80
2024/04/11 03:26:51;;;;;;;11.95;2.10;;;;;;;;;;5415057;26;20010;-82
2024/04/11 03:29:17;;;;;;;9.35;2.13;;;;;;;;;;5417675;26;20015;-80
2024/04/11 03:31:43;;;;;;;8.85;2.20;;;;;;;;;;5415397;26;20444;-80
2024/04/11 03:34:09;;;;;;;11.23;2.42;;;;;;;;;;5416105;26;20003;-80
2024/04/11 03:36:35;;;;;;;10.48;2.08;;;;;;;;;;5414869;26;20011;-81
2024/04/11 03:39:11;;;;;;;8.07;2.50;;;;;;;;;;5414932;26;20004;-80
2024/04/11 03:41:37;;;;;;;4.60;1.10;;;;;;;;;;5415935;26;20016;-83
2024/04/11 03:44:03;;;;;;;8.73;1.83;;;;;;;;;;5415299;26;20017;-83
2024/04/11 03:46:29;;;;;;;8.10;1.67;;;;;;;;;;5415678;26;20394;-83
2024/04/11 03:48:58;;;;;;;11.93;1.70;;;;;;;;;;5416439;26;20061;-83
2024/04/11 03:51:25;;;;;;;5.65;1.63;;;;;;;;;;5415266;26;20043;-83
2024/04/11 03:53:55;;;;;;;7.47;1.83;;;;;;;;;;5416695;26;20014;-83
2024/04/11 03:56:23;;;;;;;11.80;1.90;;;;;;;;;;5414905;26;19999;-83
2024/04/11 03:58:49;;;;;;;10.77;2.00;;;;;;;;;;5416463;26;19999;-82
2024/04/11 04:01:16;;;;;;;9.27;1.67;;;;;;;;;;5414852;26;20439;-83
2024/04/11 04:03:46;;;;;;;11.70;2.42;;;;;;;;;;5414403;26;20031;-83
2024/04/11 04:06:13;;;;;;;10.00;2.22;;;;;;;;;;5414965;26;20011;-82
2024/04/11 04:08:46;;;;;;;7.00;1.67;;;;;;;;;;5416111;26;20455;-82
2024/04/11 04:11:16;;;;;;;10.93;2.00;;;;;;;;;;5414552;26;20327;-81
2024/04/11 04:13:42;;;;;;;5.97;1.80;;;;;;;;;;5414321;26;20000;-84
2024/04/11 04:16:10;;;;;;;12.25;1.92;;;;;;;;;;5414568;26;20000;-81
2024/04/11 04:18:40;;;;;;;6.95;1.35;;;;;;;;;;5416250;26;20121;-81
2024/04/11 04:21:07;;;;;;;11.23;3.30;;;;;;;;;;5416369;26;19999;-82
2024/04/11 04:23:34;;;;;;;6.63;1.70;;;;;;;;;;5414182;26;20023;-82
2024/04/11 04:26:02;;;;;;;10.65;2.30;;;;;;;;;;5414267;26;20515;-81
2024/04/11 04:28:32;;;;;;;7.13;1.60;;;;;;;;;;5416376;26;20014;-82
2024/04/11 04:31:30;;;;;;;9.40;1.77;;;;;;;;;;5414216;26;20048;-81
2024/04/11 04:33:57;;;;;;;10.88;2.03;;;;;;;;;;5407128;26;19999;-80
2024/04/11 04:36:25;;;;;;;9.27;2.10;;;;;;;;;;5415801;26;19996;-79
2024/04/11 04:38:52;;;;;;;8.00;1.95;;;;;;;;;;5415624;26;20018;-79
2024/04/11 04:41:18;;;;;;;6.13;1.65;;;;;;;;;;5413951;26;20334;-80
2024/04/11 04:43:45;;;;;;;7.78;1.90;;;;;;;;;;5413638;26;20077;-80
2024/04/11 04:46:15;;;;;;;12.40;1.98;;;;;;;;;;5415702;26;20338;-81
2024/04/11 04:48:41;;;;;;;;;;;;;;;;;;5414232;26;20004;-82
2024/04/11 04:51:11;;;;;;;6.28;1.70;;;;;;;;;;5414131;26;19936;-82
2024/04/11 04:53:37;;;;;;;;;;;;;;;;;;5414269;26;20080;-81
2024/04/11 04:56:03;;;;;;;6.40;1.52;;;;;;;;;;5413726;26;20372;-81
2024/04/11 04:58:30;;;;;;;11.23;2.22;;;;;;;;;;5414966;26;20008;-81
2024/04/11 05:00:57;;;;;;;7.38;1.67;;;;;;;;;;5416776;26;20003;-80
2024/04/11 05:03:24;;;;;;;7.35;2.15;;;;;;;;;;5417163;26;20004;-81
2024/04/11 05:05:50;;;;;;;8.00;1.77;;;;;;;;;;5416536;26;20345;-81
2024/04/11 05:08:16;;;;;;;6.25;1.73;;;;;;;;;;5417407;26;20004;-81
2024/04/11 05:10:42;;;;;;;8.82;1.75;;;;;;;;;;5416280;26;20004;-80
2024/04/11 05:13:12;;;;;;;10.60;2.38;;;;;;;;;;5418926;26;20447;-81
2024/04/11 05:15:38;;;;;;;9.07;1.93;;;;;;;;;;5418462;26;20015;-80
2024/04/11 05:18:05;;;;;;;7.05;1.58;;;;;;;;;;5417125;26;20249;-81
2024/04/11 05:20:34;;;;;;;6.20;1.52;;;;;;;;;;5418730;26;20044;-81
2024/04/11 05:23:06;;;;;;;6.47;1.33;;;;;;;;;;5416858;26;20004;-80
2024/04/11 05:25:33;;;;;;;9.25;2.33;;;;;;;;;;5416893;26;20076;-81
2024/04/11 05:28:00;;;;;;;11.88;2.42;;;;;;;;;;5416986;26;20000;-80
2024/04/11 05:30:27;;;;;;;8.43;1.90;;;;;;;;;;5416635;26;20451;-81
2024/04/11 05:32:57;;;;;;;10.23;2.03;;;;;;;;;;5416395;26;20065;-79
2024/04/11 05:35:23;;;;;;;11.35;1.92;;;;;;;;;;5418752;26;20009;-79
2024/04/11 05:37:49;;;;;;;10.13;1.90;;;;;;;;;;5416672;26;20014;-78
2024/04/11 05:40:16;;;;;;;10.07;1.83;;;;;;;;;;5416929;26;20328;-78
2024/04/11 05:42:45;;;;;;;14.23;2.15;;;;;;;;;;5416750;26;20003;-79
2024/04/11 05:45:17;;;;;;;13.18;2.05;;;;;;;;;;5417241;26;19999;-79
2024/04/11 05:47:43;;;;;;;8.50;2.13;;;;;;;;;;5416478;26;19999;-80
2024/04/11 05:50:09;;;;;;;7.15;2.42;;;;;;;;;;5416527;26;20043;-79
2024/04/11 05:52:36;;;;;;;5.53;1.75;;;;;;;;;;5416355;26;19999;-80
2024/04/11 05:55:02;;;;;;;11.40;1.92;;;;;;;;;;5416811;26;20440;-81
2024/04/11 05:57:28;;;;;;;16.77;1.90;;;;;;;;;;5416754;26;20011;-79
2024/04/11 05:59:55;;;;;;;11.20;1.88;;;;;;;;;;5416233;26;20004;-80
2024/04/11 06:02:21;;;;;;;8.02;2.03;;;;;;;;;;5415844;26;20529;-80
2024/04/11 06:04:47;;;;;;;8.85;1.35;;;;;;;;;;5415817;26;20014;-77
2024/04/11 06:07:16;;;;;;;11.60;1.60;;;;;;;;;;5415922;26;20004;-78
2024/04/11 06:09:43;;;;;;;15.40;2.95;;;;;;;;;;5414863;26;20463;-78
2024/04/11 06:12:11;;;;;;;9.32;1.50;;;;;;;;;;5415974;26;20015;-78
2024/04/11 06:14:37;;;;;;;10.30;2.50;;;;;;;;;;5415334;26;20045;-79
2024/04/11 06:17:03;;;;;;;6.68;1.63;;;;;;;;;;5415700;26;20011;-78
2024/04/11 06:19:30;;;;;;;8.82;2.13;;;;;;;;;;5415701;26;20015;-78
2024/04/11 06:21:57;;;;;;;7.22;1.98;;;;;;;;;;5415074;26;20435;-79
2024/04/11 06:24:24;;;;;;;10.32;2.30;;;;;;;;;;5414477;26;19999;-78
2024/04/11 06:26:51;;;;;;;9.90;2.78;;;;;;;;;;5415171;26;20331;-79
2024/04/11 06:29:22;;;;;;;8.70;2.38;;;;;;;;;;5417300;26;20015;-78
2024/04/11 06:31:49;;;;;;;9.60;2.05;;;;;;;;;;5445306;26;20488;-78
2024/04/11 06:34:16;;;;;;;16.30;2.22;;;;;;;;;;5445463;26;20007;-79
2024/04/11 06:36:42;;;;;;;6.68;1.70;;;;;;;;;;5445013;26;19999;-78
2024/04/11 06:39:13;;;;;;;11.73;2.13;;;;;;;;;;5445710;26;20003;-78
2024/04/11 06:41:39;;;;;;;12.82;2.53;;;;;;;;;;5444640;26;20011;-79
2024/04/11 06:44:08;;;;;;;12.32;2.20;;;;;;;;;;5445532;26;20000;-79
2024/04/11 06:46:34;;;;;;;11.32;2.25;;;;;;;;;;5445453;26;20011;-80
2024/04/11 06:49:02;;;;;;;8.18;1.90;;;;;;;;;;5444895;26;20014;-79
2024/04/11 06:51:30;;;;;;;11.85;1.70;;;;;;;;;;5445475;26;20000;-79
2024/04/11 06:53:57;;;;;;;10.00;2.35;;;;;;;;;;5416993;26;20033;-79
2024/04/11 06:56:24;;;;;;;8.02;2.60;;;;;;;;;;5445083;26;20328;-79
2024/04/11 06:58:50;;;;;;;10.63;2.55;;;;;;;;;;5444870;26;20012;-79
2024/04/11 07:01:16;;;;;;;9.68;2.15;;;;;;;;;;5445146;26;20599;-78
2024/04/11 07:03:43;;;;;;;10.77;2.53;;;;;;;;;;5444812;26;20006;-78
2024/04/11 07:06:10;;;;;;;11.82;2.25;;;;;;;;;;5416921;26;19999;-79
2024/04/11 07:08:38;;;;;;;6.85;1.48;;;;;;;;;;5416819;26;20443;-78
2024/04/11 07:11:20;;;;;;;9.88;2.20;;;;;;;;;;5445062;26;20447;-79
2024/04/11 07:13:46;;;;;;;9.90;1.70;;;;;;;;;;5444837;26;20032;-79
2024/04/11 07:16:16;;;;;;;9.98;2.95;;;;;;;;;;5445034;26;20421;-79
2024/04/11 07:18:44;;;;;;;9.65;2.83;;;;;;;;;;5444758;26;20347;-79
2024/04/11 07:21:13;;;;;;;10.15;2.22;;;;;;;;;;5416443;26;20501;-80
2024/04/11 07:23:42;;;;;;;9.05;2.10;;;;;;;;;;5445022;26;20424;-80
2024/04/11 07:26:11;;;;;;;10.85;2.47;;;;;;;;;;5445132;26;20094;-80
2024/04/11 07:28:39;;;;;;;10.23;2.88;;;;;;;;;;5445346;26;19999;-79
2024/04/11 07:31:06;;;;;;;8.52;2.10;;;;;;;;;;5445136;26;20004;-82
2024/04/11 07:33:32;;;;;;;15.95;3.55;;;;;;;;;;5444911;26;20353;-87
2024/04/11 07:36:00;;;;;;;11.10;2.55;;;;;;;;;;5417978;26;20335;-87
2024/04/11 07:38:26;;;;;;;12.55;3.03;;;;;;;;;;5417302;26;20104;-88
2024/04/11 07:40:54;;;;;;;14.00;2.83;;;;;;;;;;5444695;26;20456;-86
2024/04/11 07:43:22;;;;;;;9.85;2.78;;;;;;;;;;5444947;26;20000;-86
2024/04/11 07:45:48;;;;;;;17.60;3.17;;;;;;;;;;5444794;26;20007;-85
2024/04/11 07:48:16;;;;;;;10.05;3.50;;;;;;;;;;5445308;26;20006;-85
2024/04/11 07:50:45;;;;;;;12.48;3.45;;;;;;;;;;5445777;26;20456;-85
2024/04/11 07:53:14;;;;;;;8.30;3.30;;;;;;;;;;5419184;26;20077;-84
2024/04/11 07:55:44;;;;;;;12.55;4.22;;;;;;;;;;5447274;26;20270;-86
2024/04/11 07:58:10;;;;;;;11.05;2.90;;;;;;;;;;5444649;26;20007;-84
2024/04/11 08:00:47;;;;;;;12.82;3.90;;;;;;;;;;5416322;26;20003;-84
2024/04/11 08:03:13;;;;;;;12.52;3.58;;;;;;;;;;5416313;26;20003;-85
2024/04/11 08:05:40;;;;;;;10.85;3.30;;;;;;;;;;5444561;26;20405;-85
2024/04/11 08:08:06;;;;;;;11.93;3.53;;;;;;;;;;5444228;26;20014;-84
2024/04/11 08:10:32;;;;;;;15.32;2.90;;;;;;;;;;5416146;26;20077;-84
2024/04/11 08:12:58;;;;;;;14.05;3.03;;;;;;;;;;5416358;26;19999;-85
2024/04/11 08:15:27;;;;;;;15.57;3.28;;;;;;;;;;5444346;26;20000;-85
2024/04/11 08:17:53;;;;;;;11.40;3.60;;;;;;;;;;5443872;26;20004;-85
2024/04/11 08:20:20;;;;;;;14.80;3.33;;;;;;;;;;5444392;26;20326;-85
2024/04/11 08:22:47;;;;;;;9.00;3.10;;;;;;;;;;5443553;26;20361;-85
2024/04/11 08:25:13;;;;;;;9.75;3.63;;;;;;;;;;5444196;26;20050;-84
2024/04/11 08:27:39;;;;;;;14.00;3.40;;;;;;;;;;5444217;26;19999;-84
2024/04/11 08:30:06;;;;;;;13.98;4.43;;;;;;;;;;5443866;26;19996;-85
2024/04/11 08:32:50;;;;;;;11.65;4.00;;;;;;;;;;5443743;26;20011;-84
2024/04/11 08:35:19;;;;;;;13.77;3.42;;;;;;;;;;5415759;26;20455;-83
2024/04/11 08:37:46;;;;;;;13.23;3.83;;;;;;;;;;5415566;26;20443;-84
2024/04/11 08:40:13;;;;;;;8.57;3.78;;;;;;;;;;5416092;26;20015;-84
2024/04/11 08:42:39;;;;;;;11.48;3.47;;;;;;;;;;5443606;26;20018;-84
2024/04/11 08:45:07;;;;;;;9.57;3.55;;;;;;;;;;5443460;26;20008;-85
2024/04/11 08:47:33;;;;;;;11.05;3.28;;;;;;;;;;5443548;26;20012;-84
2024/04/11 08:49:59;;;;;;;10.88;3.60;;;;;;;;;;5416076;26;20076;-84
2024/04/11 08:52:30;;;;;;;12.70;3.25;;;;;;;;;;5416358;26;20018;-85
2024/04/11 08:54:55;;;;;;;;;;;;;;;;;;5444491;26;20439;-85
2024/04/11 08:57:22;;;;;;;12.45;4.07;;;;;;;;;;5415988;26;19994;-86
2024/04/11 08:59:48;;;;;;;10.77;3.63;;;;;;;;;;5443297;26;19999;-85
2024/04/11 09:02:16;;;;;;;14.57;3.30;;;;;;;;;;5443197;26;20413;-85
2024/04/11 09:04:42;;;;;;;11.93;2.95;;;;;;;;;;5444355;26;20247;-85
2024/04/11 09:07:20;;;;;;;9.40;3.45;;;;;;;;;;5442927;26;20063;-85
2024/04/11 09:09:47;;;;;;;12.88;3.80;;;;;;;;;;5414798;26;20382;-85
2024/04/11 09:12:16;;;;;;;7.55;2.08;;;;;;;;;;5443225;26;20435;-85
2024/04/11 09:14:43;;;;;;;8.82;1.70;;;;;;;;;;5443930;26;19999;-85
2024/04/11 09:17:13;;;;;;;13.45;3.58;;;;;;;;;;5443004;26;20015;-85
2024/04/11 09:19:40;;;;;;;12.20;3.83;;;;;;;;;;5443105;26;20011;-85
2024/04/11 09:22:16;;;;;;;6.47;2.50;;;;;;;;;;5443118;26;20004;-85
2024/04/11 09:24:45;;;;;;;8.77;3.25;;;;;;;;;;5415134;26;20016;-85
2024/04/11 09:27:16;;;;;;;13.15;3.88;;;;;;;;;;5443768;26;20011;-85
2024/04/11 09:29:43;;;;;;;13.55;4.05;;;;;;;;;;5444454;26;20039;-85
2024/04/11 09:32:11;;;;;;;16.52;4.95;;;;;;;;;;5415215;26;20031;-85
2024/04/11 09:34:39;;;;;;;12.32;4.50;;;;;;;;;;5443052;26;20027;-85
2024/04/11 09:37:09;;;;;;;10.18;3.17;;;;;;;;;;5414364;26;20014;-84
2024/04/11 09:39:48;;;;;;;11.68;4.30;;;;;;;;;;5442972;26;20011;-85
2024/04/11 09:42:18;;;;;;;8.95;3.83;;;;;;;;;;5442673;26;20003;-84
2024/04/11 09:44:46;;;;;;;11.27;3.63;;;;;;;;;;5443392;26;20032;-85
2024/04/11 09:47:14;;;;;;;9.70;4.43;;;;;;;;;;5446710;26;20007;-85
2024/04/11 09:49:40;;;;;;;11.20;4.70;;;;;;;;;;5446872;26;20000;-85
2024/04/11 09:52:10;;;;;;;12.30;5.57;;;;;;;;;;5418214;26;20540;-85
2024/04/11 09:54:38;;;;;;;9.98;4.25;;;;;;;;;;5418595;26;20003;-84
2024/04/11 09:57:05;;;;;;;11.95;5.25;;;;;;;;;;5418606;26;20387;-85
2024/04/11 09:59:32;;;;;;;10.70;5.53;;;;;;;;;;5447893;26;20011;-85
2024/04/11 10:02:01;;;;;;;14.63;5.95;;;;;;;;;;5419416;26;20351;-84
2024/04/11 10:04:35;;;;;;;17.33;6.38;;;;;;;;;;5448956;26;20003;-85
2024/04/11 10:07:08;;;;;;;10.52;5.70;;;;;;;;;;5418241;26;20007;-84
2024/04/11 10:09:34;;;;;;;15.57;6.22;;;;;;;;;;5445872;26;20010;-85
2024/04/11 10:12:01;;;;;;;15.45;7.63;;;;;;;;;;5417498;26;20394;-84
2024/04/11 10:14:31;;;;;;;16.42;8.13;;;;;;;;;;5417614;26;20041;-85
2024/04/11 10:17:01;;;;;;;;;;;;;;;;;;5446354;26;20000;-84
2024/04/11 10:19:27;;;;;;;16.87;8.37;;;;;;;;;;5446255;26;19925;-85
2024/04/11 10:22:00;;;;;;;20.70;9.13;;;;;;;;;;5417497;26;20262;-85
2024/04/11 10:24:37;;;;;;;18.48;8.48;;;;;;;;;;5446012;26;20018;-85
2024/04/11 10:27:10;;;;;;;20.85;9.45;;;;;;;;;;5446049;26;20004;-85
2024/04/11 10:29:48;;;;;;;19.30;8.65;;;;;;;;;;5445718;26;20023;-85
2024/04/11 10:32:21;;;;;;;19.70;9.00;;;;;;;;;;5446005;26;20014;-85
2024/04/11 10:34:55;;;;;;;15.52;9.57;;;;;;;;;;5418552;26;20018;-84
2024/04/11 10:37:25;;;;;;;19.38;9.63;;;;;;;;;;5418567;26;20007;-84
2024/04/11 10:39:54;;;;;;;21.10;9.80;;;;;;;;;;5417888;26;20520;-85
2024/04/11 10:42:24;;;;;;;14.68;7.97;;;;;;;;;;5417973;26;20013;-84
2024/04/11 10:44:53;;;;;;;20.02;11.88;;;;;;;;;;5445354;26;20011;-84
2024/04/11 10:47:21;;;;;;;23.33;11.98;;;;;;;;;;5445665;26;20003;-84
2024/04/11 10:49:51;;;;;;;15.57;10.32;;;;;;;;;;5445770;26;20129;-84
2024/04/11 10:52:21;;;;;;;20.67;12.80;;;;;;;;;;5445484;26;20475;-84
2024/04/11 10:54:51;;;;;;;;;;;;;;;;;;5446070;26;20011;-84
2024/04/11 10:57:17;;;;;;;24.13;14.77;;;;;;;;;;5444859;26;19953;-84
2024/04/11 10:59:53;;;;;;;20.70;15.00;;;;;;;;;;5417177;26;20000;-84
2024/04/11 11:02:20;;;;;;;31.45;22.65;;;;;;;;;;5445486;26;20010;-83
2024/04/11 11:04:50;;;;;;;24.13;15.15;;;;;;;;;;5445571;26;20004;-83
2024/04/11 11:07:20;;;;;;;24.30;17.38;;;;;;;;;;5445129;26;20072;-84
2024/04/11 11:09:51;;;;;;;15.35;10.52;;;;;;;;;;5445381;26;20003;-84
2024/04/11 11:12:18;;;;;;;23.75;17.65;;;;;;;;;;5445220;26;20011;-83
2024/04/11 11:14:46;;;;;;;29.55;16.40;;;;;;;;;;5444984;26;20004;-83
2024/04/11 11:17:19;;;;;;;30.02;18.70;;;;;;;;;;5444463;26;20007;-84
2024/04/11 11:19:49;;;;;;;26.70;19.17;;;;;;;;;;5444951;26;20000;-84
2024/04/11 11:22:18;;;;;;;28.58;20.75;;;;;;;;;;5444526;26;20015;-84
2024/04/11 11:24:44;;;;;;;24.80;18.65;;;;;;;;;;5445176;26;20071;-84
2024/04/11 11:27:11;;;;;;;32.17;20.10;;;;;;;;;;5444576;26;20439;-84
2024/04/11 11:29:42;;;;;;;22.00;14.38;;;;;;;;;;5445121;26;20014;-84
2024/04/11 11:32:18;;;;;;;;;;;;;;;;;;5445177;26;20000;-84
2024/04/11 11:34:46;;;;;;;23.38;17.92;;;;;;;;;;5445039;26;20356;-84
2024/04/11 11:37:13;;;;;;;29.50;18.65;;;;;;;;;;5444671;26;20315;-84
2024/04/11 11:39:42;;;;;;;25.23;16.65;;;;;;;;;;5416965;26;20000;-82
2024/04/11 11:42:09;;;;;;;24.60;16.73;;;;;;;;;;5444475;26;19996;-83
2024/04/11 11:45:00;;;;;;;26.45;18.83;;;;;;;;;;5444799;26;20019;-83
2024/04/11 11:47:33;;;;;;;23.60;17.75;;;;;;;;;;5416574;26;20122;-82
2024/04/11 11:50:07;;;;;;;30.95;16.98;;;;;;;;;;5416427;26;20011;-84
2024/04/11 11:52:33;;;;;;;23.27;18.05;;;;;;;;;;5444565;26;20004;-84
2024/04/11 11:54:59;;;;;;;28.77;18.67;;;;;;;;;;5444610;26;20073;-84
2024/04/11 11:57:32;;;;;;;25.20;19.63;;;;;;;;;;5444961;26;20003;-84
2024/04/11 11:59:58;;;;;;;22.15;15.10;;;;;;;;;;5416761;26;20019;-82
2024/04/11 12:02:24;;;;;;;22.50;16.42;;;;;;;;;;5417685;26;19999;-82
2024/04/11 12:04:53;;;;;;;24.27;18.83;;;;;;;;;;5445432;26;20000;-82
2024/04/11 12:07:19;;;;;;;27.53;17.17;;;;;;;;;;5445452;26;20003;-82
2024/04/11 12:09:56;;;;;;;24.65;17.55;;;;;;;;;;5445481;26;20343;-82
2024/04/11 12:12:23;;;;;;;23.52;18.20;;;;;;;;;;5447251;26;19999;-82
2024/04/11 12:15:04;;;;;;;21.85;17.65;;;;;;;;;;5447523;26;19999;-83
2024/04/11 12:17:30;;;;;;;24.33;19.73;;;;;;;;;;5417320;26;20017;-82
2024/04/11 12:20:05;;;;;;;24.70;19.08;;;;;;;;;;5445389;26;20420;-83
2024/04/11 12:22:35;;;;;;;23.77;17.00;;;;;;;;;;5445333;26;20012;-82
2024/04/11 12:25:01;;;;;;;21.08;16.63;;;;;;;;;;5417073;26;20003;-83
2024/04/11 12:27:28;;;;;;;26.50;19.67;;;;;;;;;;5445651;26;19999;-83
2024/04/11 12:29:58;;;;;;;28.38;20.30;;;;;;;;;;5444715;26;20003;-83
2024/04/11 12:32:25;;;;;;;21.58;16.55;;;;;;;;;;5444506;26;20013;-82
2024/04/11 12:34:56;;;;;;;25.75;18.75;;;;;;;;;;5444706;26;20018;-82
2024/04/11 12:37:26;;;;;;;21.58;17.88;;;;;;;;;;5417203;26;20003;-83
2024/04/11 12:39:56;;;;;;;24.73;17.60;;;;;;;;;;5445110;26;20014;-81
2024/04/11 12:42:22;;;;;;;20.25;15.35;;;;;;;;;;5432768;26;20063;-81
2024/04/11 12:44:49;;;;;;;12.48;8.27;;;;;;;;;;5437051;26;20412;-82
2024/04/11 12:47:23;;;;;;;23.63;17.73;;;;;;;;;;5450511;26;20450;-80
2024/04/11 12:49:49;;;;;;;23.50;17.80;;;;;;;;;;5450386;26;20052;-81
2024/04/11 12:52:22;;;;;;;22.55;17.58;;;;;;;;;;5447323;26;19999;-80
2024/04/11 12:54:48;;;;;;;22.35;18.08;;;;;;;;;;5450099;26;20003;-80
2024/04/11 12:57:17;;;;;;;21.25;16.58;;;;;;;;;;5448468;26;19995;-81
2024/04/11 12:59:46;;;;;;;23.58;16.73;;;;;;;;;;5448660;26;20010;-80
2024/04/11 13:02:19;;;;;;;26.03;17.73;;;;;;;;;;5447943;26;20017;-81
2024/04/11 13:04:49;;;;;;;25.38;18.95;;;;;;;;;;5448652;26;20014;-80
2024/04/11 13:07:19;;;;;;;23.13;18.35;;;;;;;;;;5448817;26;20009;-81
2024/04/11 13:09:56;;;;;;;14.52;11.50;;;;;;;;;;5450818;26;19999;-81
2024/04/11 13:12:28;;;;;;;19.00;15.85;;;;;;;;;;5450848;26;20047;-81
2024/04/11 13:15:09;;;;;;;16.65;13.32;;;;;;;;;;5448939;26;20453;-83
2024/04/11 13:17:41;;;;;;;25.50;20.23;;;;;;;;;;5448787;26;19999;-83
2024/04/11 13:20:15;;;;;;;28.98;18.98;;;;;;;;;;5450741;26;19998;-81
2024/04/11 13:22:52;;;;;;;18.25;14.15;;;;;;;;;;5451562;26;20007;-79
2024/04/11 13:25:18;;;;;;;20.27;16.92;;;;;;;;;;5451571;26;20051;-81
2024/04/11 13:27:48;;;;;;;26.60;22.05;;;;;;;;;;5453779;26;20003;-81
2024/04/11 13:30:14;;;;;;;31.23;21.97;;;;;;;;;;5451250;26;20492;-81
2024/04/11 13:32:41;;;;;;;26.23;20.80;;;;;;;;;;5450619;26;20017;-82
2024/04/11 13:35:11;;;;;;;22.83;17.38;;;;;;;;;;5451430;26;19999;-84
2024/04/11 13:37:37;;;;;;;15.80;11.68;;;;;;;;;;5451685;26;20014;-83
2024/04/11 13:42:52;;;;;;;25.65;18.10;;;;;;;;;;5452910;26;20104;-84
2024/04/11 13:45:24;;;;;;;30.38;21.17;;;;;;;;;;5452828;26;20479;-83
2024/04/11 13:48:00;;;;;;;26.10;18.20;;;;;;;;;;5451121;26;19999;-82
2024/04/11 13:50:52;;;;;;;25.58;18.85;;;;;;;;;;5451616;26;20003;-82
2024/04/11 13:53:23;;;;;;;25.08;17.38;;;;;;;;;;5453860;26;20049;-83
2024/04/11 13:55:55;;;;;;;22.95;15.73;;;;;;;;;;5453855;26;20017;-84
2024/04/11 13:58:21;;;;;;;26.00;18.63;;;;;;;;;;5453959;26;19999;-84
2024/04/11 14:00:51;;;;;;;24.33;18.25;;;;;;;;;;5452210;26;20011;-86
2024/04/11 14:03:23;;;;;;;21.30;15.67;;;;;;;;;;5451548;26;20007;-86
2024/04/11 14:06:22;;;;;;;20.17;15.98;;;;;;;;;;5454078;26;20076;-83
2024/04/11 14:08:48;;;;;;;21.40;14.82;;;;;;;;;;5453762;26;20003;-83
2024/04/11 14:11:22;;;;;;;22.83;17.23;;;;;;;;;;5452039;26;20011;-82
2024/04/11 14:13:53;;;;;;;17.58;14.27;;;;;;;;;;5451855;26;20002;-83
2024/04/11 14:16:23;;;;;;;20.58;15.18;;;;;;;;;;5450322;26;19999;-83
2024/04/11 14:18:49;;;;;;;17.33;14.02;;;;;;;;;;5452415;26;20070;-82
2024/04/11 14:21:21;;;;;;;18.33;14.88;;;;;;;;;;5453161;26;20543;-82
2024/04/11 14:24:04;;;;;;;15.65;12.30;;;;;;;;;;5453795;26;19999;-83
2024/04/11 14:26:51;;;;;;;17.70;13.40;;;;;;;;;;5451839;26;19994;-82
2024/04/11 14:29:21;;;;;;;17.63;14.43;;;;;;;;;;5451131;26;20017;-83
2024/04/11 14:31:52;;;;;;;19.73;15.60;;;;;;;;;;5450660;26;20014;-82
2024/04/11 14:39:50;;;;;;;18.25;13.65;;;;;;;;;;5453520;26;19998;-83
2024/04/11 14:42:22;;;;;;;20.52;15.98;;;;;;;;;;5451121;26;20330;-83
2024/04/11 14:44:48;;;;;;;18.50;13.95;;;;;;;;;;5451201;26;20013;-82
2024/04/11 14:47:21;;;;;;;15.55;12.63;;;;;;;;;;5450873;26;20030;-82
2024/04/11 14:49:55;;;;;;;18.48;13.65;;;;;;;;;;5451368;26;20014;-83
2024/04/11 14:52:21;;;;;;;17.92;14.00;;;;;;;;;;5451113;26;20397;-82
2024/04/11 14:54:54;;;;;;;24.70;15.20;;;;;;;;;;5451035;26;20018;-82
2024/04/11 14:57:23;;;;;;;22.88;15.93;;;;;;;;;;5446690;26;20022;-83